Time;durP1;ratioP1;P1;durP2;ratioP2;P2;SDS_P1;SDS_P2;PMS_P1;PMS_P2;Temp;Humidity;BMP_temperature;BMP_pressure;BME280_temperature;BME280_humidity;BME280_pressure;Samples;Min_cycle;Max_cycle;Signal;HPM_P1;HPM_P2
2022/06/14 00:01:41;;;;;;;0.97;0.60;;;;;15.00;98919.00;;;;5075721;28;20206;-75
2022/06/14 00:04:10;;;;;;;0.60;0.60;;;;;15.00;98913.00;;;;5093301;28;20207;-75
2022/06/14 00:06:37;;;;;;;0.63;0.63;;;;;14.90;98921.00;;;;5093008;28;20569;-75
2022/06/14 00:09:05;;;;;;;0.90;0.90;;;;;15.00;98911.00;;;;5093249;28;20195;-75
2022/06/14 00:11:34;;;;;;;5.27;1.13;;;;;15.00;98912.00;;;;5093545;28;20191;-75
2022/06/14 00:14:06;;;;;;;1.03;1.03;;;;;15.10;98919.00;;;;5093152;28;20279;-75
2022/06/14 00:16:34;;;;;;;0.90;0.90;;;;;15.00;98910.00;;;;5093187;28;20210;-75
2022/06/14 00:19:01;;;;;;;0.90;0.90;;;15.70;61.70;15.00;98901.00;;;;5093098;28;20195;-75
2022/06/14 00:21:28;;;;;;;0.77;0.77;;;15.60;62.00;14.90;98908.00;;;;5093226;28;20199;-74
2022/06/14 00:23:55;;;;;;;0.73;0.73;;;15.50;61.50;14.80;98912.00;;;;5092963;28;20658;-75
2022/06/14 00:26:23;;;;;;;3.50;1.30;;;15.40;61.80;14.70;98911.00;;;;5092840;28;20215;-75
2022/06/14 00:28:49;;;;;;;0.60;0.60;;;15.40;62.60;14.80;98907.00;;;;5092937;28;20199;-75
2022/06/14 00:31:20;;;;;;;0.80;0.80;;;15.30;63.20;14.80;98908.00;;;;5075140;28;20681;-75
2022/06/14 00:33:47;;;;;;;0.47;0.47;;;15.30;63.00;14.80;98908.00;;;;5092783;28;20219;-75
2022/06/14 00:36:23;;;;;;;0.87;0.87;;;15.30;63.50;14.70;98903.00;;;;5093525;28;20195;-75
2022/06/14 00:38:50;;;;;;;1.17;1.13;;;15.20;63.10;14.60;98894.00;;;;5096341;28;20198;-75
2022/06/14 00:41:35;;;;;;;1.37;1.27;;;15.10;63.30;14.60;98901.00;;;;5096231;28;20202;-75
2022/06/14 00:44:07;;;;;;;0.40;0.40;;;15.10;63.90;14.60;98900.00;;;;5096300;28;20218;-75
2022/06/14 00:46:39;;;;;;;1.53;1.43;;;15.10;63.70;14.60;98895.00;;;;5096019;28;20222;-75
2022/06/14 00:49:14;;;;;;;0.77;0.77;;;15.20;62.70;14.80;98896.00;;;;5096310;28;20285;-75
2022/06/14 00:51:51;;;;;;;1.03;1.03;;;15.20;62.50;14.70;98895.00;;;;5096197;28;20698;-74
2022/06/14 00:54:23;;;;;;;0.93;0.93;;;15.20;62.20;14.30;98890.00;;;;5078541;28;20250;-75
2022/06/14 00:56:57;;;;;;;0.70;0.70;;;15.00;61.70;14.30;98886.00;;;;5095959;28;20198;-75
2022/06/14 00:59:30;;;;;;;0.60;0.60;;;14.90;62.90;14.40;98888.00;;;;5095977;28;20230;-75
2022/06/14 01:02:07;;;;;;;0.73;0.73;;;14.90;63.20;14.20;98890.00;;;;5095964;28;20213;-75
2022/06/14 01:04:34;;;;;;;0.40;0.40;;;14.90;63.70;14.30;98885.00;;;;5095946;28;20175;-75
2022/06/14 01:07:12;;;;;;;1.40;1.30;;;14.80;63.70;14.20;98888.00;;;;5078142;28;20238;-75
2022/06/14 01:09:44;;;;;;;0.70;0.70;;;14.70;63.10;14.20;98884.00;;;;5095986;28;20277;-74
2022/06/14 01:12:16;;;;;;;0.83;0.83;;;14.70;63.50;14.10;98841.00;;;;5096437;28;20190;-75
2022/06/14 01:14:51;;;;;;;0.43;0.43;;;14.70;63.60;14.10;98887.00;;;;5105532;28;20195;-75
2022/06/14 01:17:19;;;;;;;0.77;0.77;;;14.70;64.70;14.20;98884.00;;;;5101024;28;20221;-76
2022/06/14 01:19:46;;;;;;;0.80;0.80;;;14.70;64.60;14.10;98886.00;;;;5095794;28;20230;-75
2022/06/14 01:22:26;;;;;;;1.43;1.33;;;14.60;64.60;14.10;98869.00;;;;5095727;28;20195;-74
2022/06/14 01:24:54;;;;;;;0.87;0.87;;;14.60;65.10;14.00;98876.00;;;;5095830;28;20194;-75
2022/06/14 01:27:23;;;;;;;0.60;0.60;;;14.60;64.40;13.70;98882.00;;;;5095385;28;20283;-75
2022/06/14 01:30:00;;;;;;;0.70;0.70;;;14.40;64.70;13.90;98876.00;;;;5095463;28;20681;-75
2022/06/14 01:32:32;;;;;;;0.87;0.87;;;14.40;65.70;13.90;98867.00;;;;5095458;28;20210;-76
2022/06/14 01:35:05;;;;;;;1.00;1.00;;;14.40;65.40;14.10;98873.00;;;;5095475;28;20277;-75
2022/06/14 01:37:34;;;;;;;0.70;0.70;;;14.50;65.60;14.00;98859.00;;;;5095357;28;20732;-75
2022/06/14 01:40:06;;;;;;;0.50;0.50;;;14.50;64.80;13.70;98866.00;;;;5077644;28;20628;-75
2022/06/14 01:43:01;;;;;;;0.80;0.80;;;14.30;65.00;13.70;98865.00;;;;5095275;28;20247;-75
2022/06/14 01:45:39;;;;;;;0.60;0.60;;;14.30;65.90;13.70;98867.00;;;;5095325;28;20615;-74
2022/06/14 01:48:21;;;;;;;0.77;0.77;;;14.20;66.70;13.80;98865.00;;;;5093940;28;20289;-75
2022/06/14 01:53:52;;;;;;;1.17;1.17;;;14.20;66.10;13.50;98877.00;;;;5095107;28;20222;-75
2022/06/14 01:56:36;;;;;;;0.90;0.90;;;14.10;65.90;13.60;98881.00;;;;5077310;28;20202;-75
2022/06/14 01:59:15;;;;;;;0.70;0.70;;;14.20;65.50;13.70;98874.00;;;;5095172;28;20285;-75
2022/06/14 02:01:57;;;;;;;0.80;0.80;;;14.10;65.20;13.60;98872.00;;;;5095072;28;20213;-75
2022/06/14 02:04:39;;;;;;;1.80;1.70;;;14.10;65.50;13.50;98866.00;;;;5095083;28;20218;-75
2022/06/14 02:07:24;;;;;;;0.50;0.50;;;14.00;65.20;13.40;98868.00;;;;5094896;28;20313;-75
2022/06/14 02:10:03;;;;;;;0.77;0.77;;;13.90;65.70;13.30;98867.00;;;;5094882;28;20179;-75
2022/06/14 02:12:43;;;;;;;0.90;0.90;;;13.90;66.10;13.30;98862.00;;;;5094948;28;20263;-73
2022/06/14 02:15:23;;;;;;;0.60;0.60;;;13.90;66.50;13.30;98863.00;;;;5094867;28;20226;-76
2022/06/14 02:18:01;;;;;;;1.03;1.03;;;13.90;66.40;13.40;98856.00;;;;5094706;28;20202;-75
2022/06/14 02:20:47;;;;;;;0.97;0.97;;;13.90;66.50;13.20;98862.00;;;;5094578;28;20218;-75
2022/06/14 02:23:16;;;;;;;0.90;0.90;;;13.70;66.80;13.00;98868.00;;;;5094657;28;20637;-75
2022/06/14 02:25:52;;;;;;;0.80;0.80;;;13.60;67.70;13.10;98857.00;;;;5094387;28;20231;-75
2022/06/14 02:28:28;;;;;;;0.80;0.77;;;13.60;68.30;13.10;98861.00;;;;5076757;28;20207;-75
2022/06/14 02:31:01;;;;;;;0.97;0.97;;;13.50;68.90;13.10;98855.00;;;;5094568;28;20222;-76
2022/06/14 02:33:35;;;;;;;0.77;0.77;;;13.60;68.70;13.20;98861.00;;;;5076741;28;20231;-76
2022/06/14 02:36:08;;;;;;;0.63;0.63;;;13.70;69.20;13.10;98861.00;;;;5094499;28;20207;-76
2022/06/14 02:38:42;;;;;;;0.70;0.70;;;13.60;68.90;13.20;98858.00;;;;5094392;28;20198;-76
2022/06/14 02:41:20;;;;;;;0.50;0.50;;;13.60;68.80;13.10;98856.00;;;;5094415;28;20633;-76
2022/06/14 02:43:53;;;;;;;0.90;0.90;;;13.60;68.60;13.10;98856.00;;;;5094337;28;20210;-76
2022/06/14 02:46:29;;;;;;;1.73;1.63;;;13.60;68.90;13.00;98855.00;;;;5094163;28;20226;-76
2022/06/14 02:49:05;;;;;;;2.47;1.13;;;13.60;68.60;12.90;98859.00;;;;5094317;28;20195;-76
2022/06/14 02:51:40;;;;;;;0.60;0.60;;;13.50;68.20;12.80;98852.00;;;;5094262;28;20214;-76
2022/06/14 02:54:15;;;;;;;1.23;1.23;;;13.40;68.50;12.90;98853.00;;;;5094189;28;20190;-77
2022/06/14 02:56:50;;;;;;;0.93;0.93;;;13.40;68.80;12.90;98841.00;;;;5094163;28;20621;-77
2022/06/14 02:59:28;;;;;;;1.20;1.20;;;13.40;69.40;12.80;98858.00;;;;5093592;28;20300;-74
2022/06/14 03:02:00;;;;;;;0.67;0.67;;;13.30;70.30;12.90;98855.00;;;;5094080;28;20202;-76
2022/06/14 03:04:34;;;;;;;0.87;0.87;;;13.30;70.00;13.00;98865.00;;;;5094240;28;20638;-76
2022/06/14 03:07:11;;;;;;;0.80;0.80;;;13.40;70.10;13.00;98860.00;;;;5093885;28;20230;-76
2022/06/14 03:09:43;;;;;;;0.73;0.73;;;13.50;69.70;13.00;98865.00;;;;5094154;28;20546;-75
2022/06/14 03:12:26;;;;;;;1.67;1.57;;;13.50;69.30;13.00;98861.00;;;;5094035;28;20225;-76
2022/06/14 03:15:06;;;;;;;0.70;0.70;;;13.50;69.30;12.90;98872.00;;;;5093891;28;20214;-77
2022/06/14 03:17:53;;;;;;;1.73;1.63;;;13.50;68.80;12.90;98855.00;;;;5094104;28;20569;-76
2022/06/14 03:20:38;;;;;;;0.63;0.63;;;13.40;69.40;13.00;98855.00;;;;5093769;28;20226;-76
2022/06/14 03:23:21;;;;;;;0.70;0.70;;;13.50;68.70;12.80;98858.00;;;;5093799;28;20195;-77
2022/06/14 03:25:57;;;;;;;0.63;0.63;;;13.40;68.50;12.80;98855.00;;;;5093735;28;20287;-77
2022/06/14 03:28:36;;;;;;;1.07;1.07;;;13.30;69.00;12.90;98858.00;;;;5093763;28;20273;-76
2022/06/14 03:31:10;;;;;;;1.70;0.87;;;13.30;68.90;12.80;98860.00;;;;5093705;28;20194;-76
2022/06/14 03:33:44;;;;;;;2.17;1.70;;;13.30;68.80;12.80;98846.00;;;;5093830;28;20201;-76
2022/06/14 03:36:11;;;;;;;0.70;0.70;;;13.30;68.90;12.70;98852.00;;;;5093714;28;20218;-76
2022/06/14 03:38:45;;;;;;;0.77;0.77;;;13.20;68.50;12.60;98847.00;;;;5093537;28;20747;-76
2022/06/14 03:41:19;;;;;;;0.90;0.90;;;13.20;69.20;12.60;98845.00;;;;5093499;28;20202;-75
2022/06/14 03:43:48;;;;;;;0.70;0.70;;;13.10;68.90;12.40;98852.00;;;;5093633;28;20640;-75
2022/06/14 03:46:30;;;;;;;1.23;1.23;;;12.90;69.50;12.50;98859.00;;;;5093363;28;20234;-75
2022/06/14 03:49:05;;;;;;;0.83;0.83;;;13.00;70.50;12.50;98845.00;;;;5093437;28;20266;-76
2022/06/14 03:51:51;;;;;;;1.43;1.33;;;13.10;71.30;12.60;98848.00;;;;5093392;28;20199;-76
2022/06/14 03:54:57;;;;;;;1.17;1.07;;;13.10;72.00;12.70;98853.00;;;;5093392;28;20282;-75
2022/06/14 03:57:54;;;;;;;0.67;0.67;;;13.20;70.50;12.60;98853.00;;;;5093433;28;20258;-76
2022/06/14 04:00:33;;;;;;;0.70;0.70;;;13.20;69.90;12.70;98858.00;;;;5093240;28;20653;-76
2022/06/14 04:03:22;;;;;;;0.80;0.80;;;13.20;69.90;12.80;98856.00;;;;5093460;28;20202;-75
2022/06/14 04:06:14;;;;;;;0.87;0.87;;;13.20;69.60;12.80;98853.00;;;;5093298;28;20352;-76
2022/06/14 04:08:55;;;;;;;4.07;1.73;;;13.30;69.60;12.70;98849.00;;;;5092650;28;20741;-76
2022/06/14 04:11:42;;;;;;;1.63;1.53;;;13.30;69.40;12.80;98845.00;;;;5093905;28;20863;-75
2022/06/14 04:14:31;;;;;;;1.27;1.27;;;13.20;69.00;12.90;98845.00;;;;5096714;28;20207;-75
2022/06/14 04:17:10;;;;;;;0.80;0.80;;;13.40;69.30;12.70;98852.00;;;;5096628;28;20222;-76
2022/06/14 04:19:56;;;;;;;0.70;0.70;;;13.30;69.10;12.70;98856.00;;;;5096562;28;20335;-75
2022/06/14 04:22:34;;;;;;;0.90;0.90;;;13.30;69.70;12.70;98842.00;;;;5096586;28;20248;-76
2022/06/14 04:25:10;;;;;;;0.67;0.67;;;13.30;70.20;12.60;98849.00;;;;5096502;28;20186;-75
2022/06/14 04:27:47;;;;;;;1.23;1.23;;;13.20;70.30;12.50;98851.00;;;;5096450;28;20306;-76
2022/06/14 04:30:19;;;;;;;0.90;0.90;;;13.10;70.50;12.60;98855.00;;;;5096521;28;20194;-76
2022/06/14 04:32:56;;;;;;;0.80;0.80;;;13.10;70.80;12.70;98852.00;;;;5096368;28;20222;-75
2022/06/14 04:35:32;;;;;;;1.13;1.13;;;13.10;70.90;12.80;98855.00;;;;5096489;28;20210;-75
2022/06/14 04:38:06;;;;;;;0.97;0.97;;;13.30;70.00;12.90;98861.00;;;;5096362;28;20676;-76
2022/06/14 04:40:41;;;;;;;1.07;1.07;;;13.40;69.60;12.90;98856.00;;;;5096204;28;20195;-76
2022/06/14 04:43:13;;;;;;;1.23;1.17;;;13.50;69.80;13.00;98856.00;;;;5096288;28;20645;-75
2022/06/14 04:45:55;;;;;;;1.37;1.27;;;13.50;69.60;13.00;98859.00;;;;5095964;28;20359;-76
2022/06/14 04:48:35;;;;;;;1.20;1.10;;;13.50;69.30;13.10;98857.00;;;;5096739;28;20218;-76
2022/06/14 04:51:08;;;;;;;0.70;0.70;;;13.60;69.60;13.10;98853.00;;;;5098587;28;20254;-76
2022/06/14 04:53:44;;;;;;;1.10;1.10;;;13.60;70.00;13.20;98845.00;;;;5104377;28;20194;-76
2022/06/14 04:56:20;;;;;;;1.00;1.00;;;13.60;70.30;13.40;98844.00;;;;5100279;28;20272;-76
2022/06/14 04:58:56;;;;;;;0.90;0.90;;;13.70;69.20;13.40;98852.00;;;;5096179;28;20240;-76
2022/06/14 05:01:33;;;;;;;1.10;1.10;;;13.80;68.60;13.30;98853.00;;;;5095970;28;20277;-75
2022/06/14 05:04:11;;;;;;;1.37;1.27;;;13.80;68.20;13.50;98857.00;;;;5096161;28;20271;-76
2022/06/14 05:06:43;;;;;;;0.90;0.90;;;13.90;68.30;13.50;98851.00;;;;5095672;28;20279;-76
2022/06/14 05:09:17;;;;;;;1.00;1.00;;;14.00;67.20;13.60;98856.00;;;;5095858;28;20276;-76
2022/06/14 05:11:55;;;;;;;0.80;0.80;;;14.00;67.10;13.70;98847.00;;;;5095633;28;20630;-75
2022/06/14 05:14:30;;;;;;;1.50;1.47;;;14.20;66.40;13.60;98853.00;;;;5095616;28;20547;-76
2022/06/14 05:17:05;;;;;;;0.90;0.90;;;14.20;65.70;13.70;98847.00;;;;5095694;28;20194;-75
2022/06/14 05:19:44;;;;;;;1.40;1.30;;;14.20;66.80;13.90;98841.00;;;;5095744;28;20222;-76
2022/06/14 05:22:20;;;;;;;0.80;0.80;;;14.30;65.70;14.00;98845.00;;;;5095355;28;20203;-76
2022/06/14 05:24:47;;;;;;;1.00;1.00;;;14.40;65.40;14.00;98842.00;;;;5095415;28;20194;-75
2022/06/14 05:27:51;;;;;;;0.73;0.73;;;14.50;65.30;14.00;98848.00;;;;5095439;28;20670;-76
2022/06/14 05:30:45;;;;;;;1.63;1.53;;;14.50;64.70;14.00;98836.00;;;;5095456;28;20657;-76
2022/06/14 05:33:28;;;;;;;1.57;1.13;;;14.60;65.60;14.10;98839.00;;;;5095347;28;20279;-75
2022/06/14 05:36:05;;;;;;;0.80;0.80;;;14.60;67.00;14.10;98821.00;;;;5077682;28;20703;-76
2022/06/14 05:38:50;;;;;;;1.00;1.00;;;14.60;67.60;14.30;98849.00;;;;5095323;28;20222;-76
2022/06/14 05:41:25;;;;;;;0.87;0.87;;;14.80;68.40;14.40;98846.00;;;;5077501;28;20198;-76
2022/06/14 05:43:57;;;;;;;0.80;0.80;;;14.90;68.10;14.40;98841.00;;;;5095296;28;20299;-76
2022/06/14 05:46:33;;;;;;;2.37;0.80;;;14.90;67.60;14.50;98848.00;;;;5095133;28;20230;-75
2022/06/14 05:49:07;;;;;;;0.80;0.80;;;14.90;67.30;14.60;98843.00;;;;5095223;28;20281;-77
2022/06/14 05:51:43;;;;;;;0.70;0.70;;;15.00;67.50;14.50;98848.00;;;;5095095;28;20195;-77
2022/06/14 05:54:24;;;;;;;0.97;0.97;;;15.20;68.30;14.70;98854.00;;;;5095144;28;20657;-77
2022/06/14 05:57:00;;;;;;;0.70;0.70;;;15.20;67.90;14.80;98856.00;;;;5095112;28;20195;-77
2022/06/14 05:59:35;;;;;;;0.97;0.97;;;15.30;67.00;14.90;98851.00;;;;5095148;28;20179;-76
2022/06/14 06:02:15;;;;;;;1.20;1.20;;;15.30;65.90;15.00;98860.00;;;;5095103;28;20194;-76
2022/06/14 06:04:53;;;;;;;0.47;0.47;;;15.40;65.20;15.10;98855.00;;;;5094996;28;20214;-75
2022/06/14 06:07:28;;;;;;;1.17;1.13;;;15.50;64.00;15.10;98853.00;;;;5094838;28;20245;-77
2022/06/14 06:10:05;;;;;;;1.10;1.10;;;15.60;63.90;15.20;98854.00;;;;5094836;28;20269;-77
2022/06/14 06:12:39;;;;;;;1.37;1.27;;;15.70;63.60;15.20;98849.00;;;;5094738;28;20214;-80
2022/06/14 06:15:15;;;;;;;1.07;0.97;;;15.70;64.40;15.30;98844.00;;;;5094764;28;20306;-73
2022/06/14 06:17:49;;;;;;;2.03;1.90;;;15.80;64.40;15.30;98855.00;;;;5094738;28;20195;-76
2022/06/14 06:20:29;;;;;;;0.90;0.90;;;15.80;64.90;15.50;98856.00;;;;5094356;28;20285;-77
2022/06/14 06:23:09;;;;;;;0.70;0.70;;;15.90;64.20;15.50;98846.00;;;;5094544;28;20652;-77
2022/06/14 06:25:41;;;;;;;1.47;1.37;;;16.00;63.60;15.60;98842.00;;;;5077003;28;20559;-78
2022/06/14 06:28:15;;;;;;;0.70;0.70;;;16.00;63.70;15.70;98840.00;;;;5094574;28;20570;-80
2022/06/14 06:30:49;;;;;;;0.97;0.97;;;16.20;64.10;15.70;98846.00;;;;5094522;28;20645;-78
2022/06/14 06:33:18;;;;;;;0.70;0.70;;;16.20;64.10;15.80;98842.00;;;;5094332;28;20297;-79
2022/06/14 06:35:55;;;;;;;3.57;2.43;;;16.30;63.30;15.90;98844.00;;;;5094129;28;20190;-81
2022/06/14 06:38:36;;;;;;;0.90;0.90;;;16.30;62.60;15.90;98849.00;;;;5094404;28;20657;-80
2022/06/14 06:44:05;;;;;;;1.67;1.57;;;16.40;63.20;16.10;98847.00;;;;5094326;28;20564;-78
2022/06/14 06:46:38;;;;;;;1.73;1.63;;;16.60;64.40;16.00;98857.00;;;;5094098;28;20739;-79
2022/06/14 06:49:12;;;;;;;1.43;1.33;;;16.60;64.10;16.10;98842.00;;;;5094411;28;20219;-79
2022/06/14 06:51:46;;;;;;;1.00;1.00;;;16.60;64.00;16.10;98824.00;;;;5094208;28;20274;-80
2022/06/14 06:54:23;;;;;;;1.50;1.40;;;16.60;63.90;16.20;98848.00;;;;5094168;28;20222;-78
2022/06/14 06:56:57;;;;;;;1.00;1.00;;;16.70;63.40;16.30;98839.00;;;;5094184;28;20194;-79
2022/06/14 06:59:32;;;;;;;2.10;1.00;;;16.80;62.80;16.60;98844.00;;;;5094224;28;20256;-80
2022/06/14 07:02:04;;;;;;;1.10;1.10;;;17.00;61.60;16.70;98844.00;;;;5094036;28;20289;-79
2022/06/14 07:07:28;;;;;;;1.90;1.70;;;17.20;60.50;16.80;98844.00;;;;5094134;28;20665;-81
2022/06/14 07:10:03;;;;;;;1.10;1.10;;;17.30;60.30;17.00;98823.00;;;;5094030;28;20208;-80
2022/06/14 07:12:39;;;;;;;0.70;0.70;;;17.40;57.60;17.00;98841.00;;;;5076029;28;20674;-81
2022/06/14 07:15:15;;;;;;;1.33;1.33;;;17.50;57.60;17.00;98839.00;;;;5093961;28;20194;-79
2022/06/14 07:17:51;;;;;;;0.80;0.80;;;17.50;58.40;17.20;98826.00;;;;5093856;28;20190;-81
2022/06/14 07:20:38;;;;;;;0.90;0.90;;;17.60;57.00;17.30;98850.00;;;;5093960;28;20198;-81
2022/06/14 07:23:18;;;;;;;0.80;0.80;;;17.70;56.20;17.30;98845.00;;;;5093761;28;20237;-82
2022/06/14 07:26:07;;;;;;;1.27;0.80;;;17.80;55.30;17.70;98822.00;;;;5093565;28;20218;-81
2022/06/14 07:28:51;;;;;;;1.30;1.30;;;18.00;53.60;17.60;98842.00;;;;5093720;28;20195;-82
2022/06/14 07:31:27;;;;;;;0.70;0.70;;;18.10;54.00;17.60;98835.00;;;;5093790;28;20199;-80
2022/06/14 07:33:58;;;;;;;1.77;1.67;;;18.10;53.80;17.70;98841.00;;;;5093696;28;20195;-80
2022/06/14 07:36:39;;;;;;;0.73;0.73;;;18.10;54.50;17.90;98831.00;;;;5093647;28;20191;-77
2022/06/14 07:39:14;;;;;;;0.80;0.80;;;18.30;52.30;17.90;98834.00;;;;5093590;28;20218;-78
2022/06/14 07:41:50;;;;;;;0.73;0.73;;;18.40;51.20;18.10;98849.00;;;;5093554;28;20210;-80
2022/06/14 07:44:28;;;;;;;0.50;0.50;;;18.40;51.30;18.20;98842.00;;;;5093585;28;20343;-78
2022/06/14 07:47:07;;;;;;;0.90;0.90;;;18.50;51.10;18.30;98844.00;;;;5097046;28;20229;-76
2022/06/14 07:49:47;;;;;;;0.83;0.83;;;18.70;50.70;18.30;98835.00;;;;5097192;28;20532;-77
2022/06/14 07:52:24;;;;;;;1.10;1.10;;;18.70;49.40;18.30;98843.00;;;;5097094;28;20244;-78
2022/06/14 07:55:02;;;;;;;1.03;1.03;;;18.80;49.40;18.40;98844.00;;;;5097085;28;20204;-78
2022/06/14 07:57:40;;;;;;;2.37;1.30;;;18.80;48.80;18.50;98837.00;;;;5096926;28;20273;-76
2022/06/14 08:03:11;;;;;;;2.93;1.33;;;19.00;47.50;18.70;98834.00;;;;5096915;28;20191;-82
2022/06/14 08:05:45;;;;;;;1.00;0.97;;;19.10;46.00;19.00;98836.00;;;;5096820;28;20220;-78
2022/06/14 08:08:20;;;;;;;0.40;0.40;;;19.40;45.00;19.10;98839.00;;;;5096710;28;20222;-78
2022/06/14 08:11:07;;;;;;;0.57;0.57;;;19.40;44.30;19.20;98845.00;;;;5096813;28;20412;-80
2022/06/14 08:13:40;;;;;;;1.43;1.33;;;;;19.20;98841.00;;;;5096823;28;20674;-83
2022/06/14 08:16:09;;;;;;;0.90;0.90;;;;;19.30;98835.00;;;;5096725;28;20229;-84
2022/06/14 08:18:40;;;;;;;0.70;0.70;;;;;19.40;98828.00;;;;5096591;28;20233;-77
2022/06/14 08:21:14;;;;;;;0.67;0.67;;;;;19.50;98822.00;;;;5096536;28;20198;-79
2022/06/14 08:23:47;;;;;;;1.00;1.00;;;;;19.60;98836.00;;;;5096477;28;20225;-79
2022/06/14 08:26:20;;;;;;;1.07;0.97;;;;;19.70;98834.00;;;;5096450;28;20244;-80
2022/06/14 08:28:51;;;;;;;0.97;0.97;;;;;19.70;98831.00;;;;5096440;28;20190;-80
2022/06/14 08:31:23;;;;;;;0.67;0.67;;;;;19.80;98829.00;;;;5096398;28;20214;-81
2022/06/14 08:33:59;;;;;;;0.90;0.90;;;20.30;40.60;19.90;98817.00;;;;5078934;28;20529;-80
2022/06/14 08:36:39;;;;;;;0.83;0.83;;;20.30;41.10;20.00;98834.00;;;;5096533;28;20269;-80
2022/06/14 08:39:14;;;;;;;0.67;0.67;;;20.50;40.70;20.20;98832.00;;;;5096425;28;20289;-81
2022/06/14 08:41:58;;;;;;;0.80;0.80;;;20.50;39.40;20.40;98826.00;;;;5096451;28;20292;-77
2022/06/14 08:44:34;;;;;;;0.70;0.70;;;20.70;37.30;20.50;98802.00;;;;5096279;28;20218;-80
2022/06/14 08:47:43;;;;;;;0.60;0.60;;;20.80;37.40;20.60;98822.00;;;;5096221;28;20221;-77
2022/06/14 08:50:30;;;;;;;1.30;1.23;;;21.00;37.80;20.50;98826.00;;;;5096046;28;20612;-79
2022/06/14 08:53:40;;;;;;;0.93;0.93;;;21.00;37.40;20.50;98828.00;;;;5096359;28;20656;-78
2022/06/14 08:56:41;;;;;;;0.70;0.70;;;21.00;37.70;20.70;98825.00;;;;5096112;28;20226;-81
2022/06/14 08:59:45;;;;;;;1.27;1.00;;;21.10;38.80;20.80;98820.00;;;;5095964;28;20212;-80
2022/06/14 09:03:29;;;;;;;0.60;0.60;;;21.20;37.50;20.80;98819.00;;;;5095870;28;20945;-81
2022/06/14 09:06:53;;;;;;;0.80;0.80;;;21.30;37.10;20.80;98811.00;;;;5080065;28;20236;-79
2022/06/14 09:10:26;;;;;;;1.00;1.00;;;21.30;36.80;21.10;98809.00;;;;5095047;28;20226;-78
2022/06/14 09:13:55;;;;;;;0.77;0.77;;;21.50;36.80;21.20;98803.00;;;;5095795;28;20236;-80
2022/06/14 09:16:58;;;;;;;0.53;0.53;;;21.60;37.10;21.30;98808.00;;;;5014268;28;20224;-81
2022/06/14 09:19:46;;;;;;;0.60;0.60;;;21.70;37.30;21.40;98799.00;;;;5095709;28;20201;-78
2022/06/14 09:22:37;;;;;;;1.03;1.03;;;21.80;37.70;21.50;98798.00;;;;5095521;28;20301;-82
2022/06/14 09:25:19;;;;;;;1.02;1.02;;;21.90;36.30;21.40;98793.00;;;;5078007;28;20626;-84
2022/06/14 09:28:31;;;;;;;0.60;0.60;;;21.90;35.40;21.60;98800.00;;;;5095483;28;20268;-85
2022/06/14 09:31:25;;;;;;;0.90;0.90;;;22.00;36.70;21.70;98798.00;;;;5095555;28;20539;-82
2022/06/14 09:34:13;;;;;;;0.65;0.65;;;;;21.80;98799.00;;;;5095362;28;20195;-80
2022/06/14 09:37:48;;;;;;;0.50;0.50;;;22.20;34.40;21.90;98796.00;;;;5095463;28;20214;-77
2022/06/14 09:40:52;;;;;;;0.55;0.55;;;22.30;35.70;22.10;98786.00;;;;5045586;28;20249;-81
2022/06/14 09:44:06;;;;;;;0.40;0.40;;;22.50;35.80;22.20;98795.00;;;;5077535;28;20305;-81
2022/06/14 09:47:13;;;;;;;0.40;0.40;;;;;22.20;98785.00;;;;5095176;28;20278;-78
2022/06/14 09:50:23;;;;;;;1.30;1.20;;;;;22.20;98781.00;;;;5095279;28;20533;-79
2022/06/14 09:53:15;;;;;;;0.68;0.68;;;;;22.50;98773.00;;;;5095135;28;20206;-76
2022/06/14 09:56:16;;;;;;;0.52;0.52;;;;;22.50;98782.00;;;;5077596;28;20597;-77
2022/06/14 09:59:25;;;;;;;0.30;0.30;;;;;22.60;98776.00;;;;5101075;28;20198;-77
2022/06/14 10:02:01;;;;;;;0.38;0.38;;;;;22.60;98774.00;;;;5036034;28;20594;-85
2022/06/14 10:05:06;;;;;;;0.70;0.70;;;;;22.60;98763.00;;;;5095731;28;20260;-78
2022/06/14 10:07:53;;;;;;;1.08;1.05;;;;;22.90;98768.00;;;;5094837;28;20234;-80
2022/06/14 10:10:44;;;;;;;0.95;0.95;;;;;23.10;98762.00;;;;5094068;28;20499;-76
2022/06/14 10:13:40;;;;;;;1.25;0.85;;;;;23.30;98756.00;;;;5095057;28;20222;-80
2022/06/14 10:16:21;;;;;;;1.13;1.13;;;;;23.40;98763.00;;;;5094941;28;20202;-78
2022/06/14 10:19:05;;;;;;;0.60;0.60;;;;;23.30;98752.00;;;;5077094;28;20202;-75
2022/06/14 10:21:38;;;;;;;0.47;0.47;;;;;23.40;98751.00;;;;5094781;28;20190;-77
2022/06/14 10:24:20;;;;;;;0.50;0.50;;;;;23.30;98755.00;;;;5094973;28;20297;-81
2022/06/14 10:30:14;;;;;;;0.68;0.68;;;;;23.70;98749.00;;;;5094529;28;20212;-76
2022/06/14 10:33:20;;;;;;;1.65;1.00;;;;;23.60;98747.00;;;;5094362;28;20230;-76
2022/06/14 10:35:59;;;;;;;0.40;0.40;;;;;23.60;98750.00;;;;5094495;28;20209;-76
2022/06/14 10:39:01;;;;;;;23.00;1.40;;;;;23.70;98760.00;;;;5094288;28;20229;-78
2022/06/14 10:41:38;;;;;;;1.75;0.82;;;;;23.80;98748.00;;;;5091214;28;20595;-79
2022/06/14 10:44:21;;;;;;;1.00;1.00;;;;;24.00;98747.00;;;;5076491;28;20209;-78
2022/06/14 10:46:59;;;;;;;1.02;1.02;;;;;24.20;98746.00;;;;5094298;28;20214;-80
2022/06/14 10:49:57;;;;;;;1.55;1.15;;;;;24.50;98744.00;;;;5094361;28;20186;-78
2022/06/14 10:52:39;;;;;;;0.60;0.60;;;;;24.60;98741.00;;;;5094124;28;20265;-78
2022/06/14 10:55:33;;;;;;;0.63;0.63;;;;;24.70;98735.00;;;;5094462;28;20336;-79
2022/06/14 10:58:23;;;;;;;0.93;0.77;;;;;24.60;98733.00;;;;5094458;28;20280;-81
2022/06/14 11:00:56;;;;;;;0.80;0.80;;;;;24.70;98726.00;;;;5094184;28;20211;-78
2022/06/14 11:03:35;;;;;;;0.63;0.63;;;;;24.70;98724.00;;;;5094387;28;20183;-75
2022/06/14 11:06:34;;;;;;;1.33;1.27;;;;;24.90;98729.00;;;;5094288;28;20201;-80
2022/06/14 11:09:14;;;;;;;1.23;0.55;;;;;25.20;98724.00;;;;5094078;28;20286;-80
2022/06/14 11:11:56;;;;;;;0.60;0.60;;;;;25.10;98719.00;;;;5076407;28;20283;-80
2022/06/14 11:14:33;;;;;;;0.60;0.60;;;;;25.20;98727.00;;;;5093945;28;20198;-78
2022/06/14 11:17:17;;;;;;;0.50;0.50;;;;;25.20;98725.00;;;;5093868;28;20265;-78
2022/06/14 11:20:01;;;;;;;0.75;0.75;;;;;25.40;98716.00;;;;5093626;28;20197;-79
2022/06/14 11:22:35;;;;;;;0.70;0.70;;;;;25.40;98719.00;;;;5093797;28;20190;-79
2022/06/14 11:25:15;;;;;;;0.70;0.70;;;;;25.40;98718.00;;;;5094028;28;20238;-80
2022/06/14 11:27:52;;;;;;;0.82;0.82;;;;;25.60;98720.00;;;;5093728;28;20226;-80
2022/06/14 11:30:30;;;;;;;2.00;0.95;;;;;25.80;98708.00;;;;5093750;28;20226;-82
2022/06/14 11:33:07;;;;;;;0.85;0.70;;;;;25.80;98709.00;;;;5093732;28;20190;-76
2022/06/14 11:36:06;;;;;;;0.60;0.60;;;;;25.90;98708.00;;;;5093678;28;20269;-79
2022/06/14 11:39:10;;;;;;;1.13;1.13;;;;;26.20;98712.00;;;;5090242;28;20268;-77
2022/06/14 11:41:43;;;;;;;2.38;1.10;;;;;26.30;98704.00;;;;5046157;28;20202;-77
2022/06/14 11:44:24;;;;;;;0.68;0.68;;;;;26.40;98698.00;;;;5093650;28;20221;-77
2022/06/14 11:46:59;;;;;;;0.47;0.47;;;;;26.10;98702.00;;;;5075693;28;20231;-78
2022/06/14 11:49:35;;;;;;;0.50;0.50;;;;;26.20;98695.00;;;;5075752;28;20233;-77
2022/06/14 11:52:21;;;;;;;0.68;0.68;;;;;26.70;98699.00;;;;5093557;28;20195;-77
2022/06/14 11:54:59;;;;;;;0.80;0.80;;;;;27.00;98693.00;;;;5093499;28;20202;-82
2022/06/14 11:57:35;;;;;;;0.80;0.80;;;;;27.30;98689.00;;;;5075726;28;20716;-83
2022/06/14 12:00:24;;;;;;;0.70;0.70;;;;;27.70;98687.00;;;;5093375;28;20537;-82
2022/06/14 12:02:59;;;;;;;0.70;0.70;;;;;27.70;98677.00;;;;5093865;28;20230;-78
2022/06/14 12:05:41;;;;;;;0.68;0.68;;;;;28.00;98678.00;;;;5093259;28;20277;-78
2022/06/14 12:08:23;;;;;;;0.80;0.80;;;;;28.10;98684.00;;;;5093195;28;20237;-77
2022/06/14 12:10:52;;;;;;;0.80;0.80;;;;;28.50;98675.00;;;;5098215;28;20189;-79
2022/06/14 12:13:46;;;;;;;0.70;0.70;;;;;28.50;98676.00;;;;5098107;28;20281;-82
2022/06/14 12:16:16;;;;;;;1.00;1.00;;;;;28.30;98670.00;;;;5087316;28;20231;-78
2022/06/14 12:18:55;;;;;;;0.95;0.93;;;;;28.30;98667.00;;;;5093161;28;20273;-81
2022/06/14 12:21:28;;;;;;;0.60;0.60;;;;;28.50;98669.00;;;;5093093;28;20194;-80
2022/06/14 12:24:02;;;;;;;0.95;0.95;;;;;28.90;98664.00;;;;5093000;28;20199;-80
2022/06/14 12:26:37;;;;;;;0.70;0.70;;;;;29.10;98666.00;;;;5092655;28;20195;-79
2022/06/14 12:29:15;;;;;;;5.57;1.17;;;;;29.40;98668.00;;;;5075244;28;20237;-80